createdAt,value
2017-06-05T14:09:20.447Z,35.36
2017-06-05T14:10:16.779Z,33.76
2017-06-05T14:11:13.102Z,33.88
2017-06-05T14:12:09.406Z,34.74
2017-06-05T14:13:08.623Z,35.51
2017-06-05T14:14:04.900Z,35.91
2017-06-05T14:15:01.135Z,36.38
2017-06-05T14:15:57.374Z,37.15
2017-06-05T14:16:53.624Z,37.69
2017-06-05T14:17:49.863Z,37.90
2017-06-05T14:18:46.108Z,38.33
2017-06-05T14:19:42.379Z,38.73
2017-06-05T14:20:39.462Z,38.75
2017-06-05T14:21:36.499Z,38.72
2017-06-05T14:22:32.739Z,38.92
2017-06-05T14:23:28.995Z,38.81
2017-06-05T14:24:25.239Z,39.18
2017-06-05T14:25:21.484Z,38.79
2017-06-05T14:26:18.654Z,39.13
2017-06-05T14:27:14.895Z,39.46
2017-06-05T14:28:11.130Z,39.54
2017-06-05T14:29:07.371Z,39.21
2017-06-05T14:30:03.609Z,38.96
2017-06-05T14:30:59.869Z,38.75
2017-06-05T14:31:57.059Z,38.67
2017-06-05T14:32:53.325Z,38.82
2017-06-05T14:33:49.583Z,38.87
2017-06-05T14:34:45.842Z,39.16
2017-06-05T14:35:42.080Z,39.11
2017-06-05T14:36:38.327Z,39.10
2017-06-05T14:37:34.593Z,39.23
2017-06-05T14:38:30.839Z,39.40
2017-06-05T14:39:27.078Z,39.38
2017-06-05T14:40:23.336Z,39.47
2017-06-05T14:41:19.570Z,38.98
2017-06-05T14:42:15.852Z,38.80
2017-06-05T14:43:12.108Z,38.61
2017-06-05T14:44:08.347Z,38.29
2017-06-05T14:45:04.588Z,38.54
2017-06-05T14:46:00.847Z,38.21
2017-06-05T14:46:57.079Z,38.07
2017-06-05T14:47:53.551Z,38.20
2017-06-05T14:48:49.798Z,37.94
2017-06-05T14:49:46.042Z,37.81
2017-06-05T14:50:42.287Z,38.16
2017-06-05T14:51:39.311Z,38.56
2017-06-05T14:52:35.575Z,38.72
2017-06-05T14:53:31.815Z,38.59
2017-06-05T14:54:28.051Z,38.13
2017-06-05T14:55:24.282Z,37.92
2017-06-05T14:56:20.507Z,37.94
2017-06-05T14:57:16.742Z,38.36
2017-06-05T14:58:12.982Z,38.91
2017-06-05T14:59:09.243Z,39.35
2017-06-05T15:00:05.475Z,39.26
2017-06-05T15:01:01.927Z,38.96
2017-06-05T15:01:58.166Z,38.87
2017-06-05T15:02:54.411Z,38.47
2017-06-05T15:03:50.658Z,38.45
2017-06-05T15:04:47.132Z,38.51
2017-06-05T15:05:43.408Z,38.33
2017-06-05T15:06:39.701Z,38.46
2017-06-05T15:07:36.594Z,38.55
2017-06-05T15:08:32.855Z,38.09
2017-06-05T15:09:29.099Z,37.84
2017-06-05T15:10:25.334Z,37.71
2017-06-05T15:11:21.571Z,37.82
2017-06-05T15:12:17.811Z,38.12
2017-06-05T15:13:14.064Z,38.49
2017-06-05T15:14:10.343Z,38.44
2017-06-05T15:15:06.576Z,38.04
2017-06-05T15:16:03.715Z,37.92
2017-06-05T15:16:59.957Z,37.61
2017-06-05T15:17:56.199Z,37.49
2017-06-05T15:18:52.447Z,37.37
2017-06-05T15:19:48.714Z,37.59
2017-06-05T15:20:44.983Z,37.85
2017-06-05T15:21:41.231Z,37.80
2017-06-05T15:22:37.471Z,37.91
2017-06-05T15:23:35.711Z,38.44
2017-06-05T15:24:31.967Z,38.92
2017-06-05T15:25:28.199Z,39.42
2017-06-05T15:26:24.442Z,39.78
2017-06-05T15:27:20.691Z,40.19
2017-06-05T15:28:16.930Z,40.46
2017-06-05T15:29:13.184Z,40.72
2017-06-05T15:30:10.407Z,41.00
2017-06-05T15:31:06.663Z,41.32
2017-06-05T15:32:02.923Z,41.46
2017-06-05T15:32:59.178Z,41.37
2017-06-05T15:33:55.411Z,40.64
2017-06-05T15:34:52.630Z,40.48
2017-06-05T15:35:49.727Z,40.47
2017-06-05T15:36:46.179Z,40.88
2017-06-05T15:37:42.447Z,41.24
2017-06-05T15:38:38.699Z,41.66
2017-06-05T15:39:34.943Z,42.03
2017-06-05T15:40:31.406Z,41.44
2017-06-05T15:41:27.663Z,41.21
2017-06-05T15:42:23.898Z,41.18
2017-06-05T15:43:20.148Z,40.88
2017-06-05T15:44:16.386Z,41.06
2017-06-05T15:45:12.661Z,40.92
2017-06-05T15:46:08.915Z,40.85
2017-06-05T15:47:06.050Z,40.63
2017-06-05T15:48:02.327Z,40.77
2017-06-05T15:48:58.575Z,41.08
2017-06-05T15:49:54.823Z,41.15
2017-06-05T15:50:51.062Z,40.95
2017-06-05T15:51:47.314Z,40.91
2017-06-05T15:52:44.314Z,41.16
2017-06-05T15:53:40.559Z,41.53
2017-06-05T15:54:37.650Z,41.92
2017-06-05T15:55:33.918Z,42.17
2017-06-05T15:56:30.193Z,42.75
2017-06-05T15:57:26.441Z,43.35
2017-06-05T15:58:22.675Z,43.27
2017-06-05T15:59:18.939Z,42.19
2017-06-05T16:00:15.203Z,41.42
2017-06-05T16:01:11.444Z,41.28
2017-06-05T16:02:07.719Z,41.33
2017-06-05T16:03:03.984Z,41.00
2017-06-05T16:04:00.211Z,40.92
2017-06-05T16:04:56.498Z,40.50
2017-06-05T16:05:52.740Z,40.72
2017-06-05T16:06:48.988Z,41.32
2017-06-05T16:07:45.242Z,41.82
2017-06-05T16:08:41.479Z,41.20
2017-06-05T16:09:37.918Z,41.07
2017-06-05T16:10:34.158Z,41.27
2017-06-05T16:11:30.391Z,41.78
2017-06-05T16:12:26.634Z,41.67
2017-06-05T16:13:22.894Z,41.82
2017-06-05T16:14:19.118Z,42.38
2017-06-05T16:15:15.366Z,42.82
2017-06-05T16:16:11.763Z,43.09
2017-06-05T16:17:08.014Z,43.08
2017-06-05T16:18:05.147Z,42.82
2017-06-05T16:19:01.388Z,42.44
2017-06-05T16:19:57.624Z,42.37
2017-06-05T16:20:54.794Z,42.59
2017-06-05T16:21:51.895Z,42.67
2017-06-05T16:22:48.187Z,42.71
2017-06-05T16:23:44.528Z,42.82
2017-06-05T16:24:40.991Z,43.16
2017-06-05T16:25:38.021Z,43.40
2017-06-05T16:26:35.191Z,43.84
2017-06-05T16:27:31.418Z,44.12
2017-06-05T16:28:27.706Z,43.92
2017-06-05T16:29:23.990Z,43.48
2017-06-05T16:30:20.273Z,43.37
2017-06-05T16:31:16.518Z,43.18
2017-06-05T16:32:12.776Z,43.50
2017-06-05T16:33:10.015Z,43.75
2017-06-05T16:34:06.327Z,43.87
2017-06-05T16:35:02.571Z,44.04
2017-06-05T16:35:58.834Z,44.23
2017-06-05T16:36:55.158Z,44.54
2017-06-05T16:37:52.363Z,44.61
2017-06-05T16:38:48.655Z,44.68
2017-06-05T16:39:44.930Z,44.79
2017-06-05T16:40:41.484Z,44.89
2017-06-05T16:41:38.662Z,44.97
2017-06-05T16:42:37.941Z,44.98
2017-06-05T16:43:34.206Z,44.99
2017-06-05T16:44:30.463Z,45.02
2017-06-05T16:45:28.935Z,45.08
2017-06-05T16:46:25.223Z,45.16
2017-06-05T16:47:21.511Z,45.22
2017-06-05T16:48:17.750Z,45.33
2017-06-05T16:49:14.019Z,45.58
2017-06-05T16:50:11.226Z,45.91
2017-06-05T16:51:07.471Z,46.22
2017-06-05T16:52:03.719Z,46.41
2017-06-05T16:52:59.943Z,46.60
2017-06-05T16:53:56.190Z,46.66
2017-06-05T16:54:53.280Z,46.91
2017-06-05T16:55:49.546Z,47.14
2017-06-05T16:56:46.790Z,47.30
2017-06-05T16:57:43.045Z,47.47
2017-06-05T16:58:39.271Z,47.58
2017-06-05T16:59:35.547Z,47.67
2017-06-05T17:00:31.823Z,48.10
2017-06-05T17:01:28.938Z,48.38
2017-06-05T17:02:25.239Z,48.50
2017-06-05T17:03:21.479Z,48.79
2017-06-05T17:04:17.711Z,48.92
2017-06-05T17:05:14.822Z,48.84
2017-06-05T17:06:11.367Z,49.03
2017-06-05T17:07:07.712Z,49.28
2017-06-05T17:08:03.971Z,49.43
2017-06-05T17:09:01.051Z,49.51
2017-06-05T17:09:58.287Z,49.63
2017-06-05T17:10:54.571Z,49.83
2017-06-05T17:11:51.659Z,49.97
2017-06-05T17:12:47.961Z,50.22
2017-06-05T17:13:45.215Z,50.63
2017-06-05T17:14:44.490Z,50.82
2017-06-05T17:15:40.767Z,51.11
2017-06-05T17:16:37.023Z,51.16
2017-06-05T17:17:33.661Z,51.18
2017-06-05T17:18:30.003Z,51.40
2017-06-05T17:19:26.242Z,51.72
2017-06-05T17:20:23.340Z,52.08
2017-06-05T17:21:20.591Z,52.25
2017-06-05T17:22:17.767Z,52.55
2017-06-05T17:23:14.571Z,52.65
2017-06-05T17:24:10.903Z,52.80
2017-06-05T17:25:08.135Z,52.93
2017-06-05T17:26:05.158Z,52.91
2017-06-05T17:27:01.426Z,52.98
2017-06-05T17:27:58.596Z,53.10
2017-06-05T17:28:54.834Z,53.02
2017-06-05T17:29:51.118Z,52.49
2017-06-05T17:30:47.399Z,52.22
2017-06-05T17:31:43.658Z,52.33
2017-06-05T17:32:41.921Z,52.45
2017-06-05T17:33:39.099Z,52.44
2017-06-05T17:34:35.467Z,52.46
2017-06-05T17:35:31.727Z,52.56
2017-06-05T17:36:28.815Z,52.27
2017-06-05T17:37:25.098Z,52.40
2017-06-05T17:38:21.350Z,52.19
2017-06-05T17:39:17.627Z,51.85
2017-06-05T17:40:14.059Z,51.98
2017-06-05T17:41:10.392Z,52.32
2017-06-05T17:42:06.697Z,52.62
2017-06-05T17:43:02.955Z,52.63
2017-06-05T17:43:59.252Z,52.41
2017-06-05T17:44:55.595Z,52.48
2017-06-05T17:45:51.858Z,52.69
2017-06-05T17:46:48.127Z,52.94
2017-06-05T17:47:44.390Z,53.12
2017-06-05T17:48:40.841Z,53.18
2017-06-05T17:49:37.094Z,52.95
2017-06-05T17:50:34.171Z,52.67
2017-06-05T17:51:30.654Z,52.33
2017-06-05T17:52:26.899Z,52.36
2017-06-05T17:53:23.150Z,52.34
2017-06-05T17:54:20.374Z,52.54
2017-06-05T17:55:16.648Z,52.90
2017-06-05T17:56:13.114Z,53.04
2017-06-05T17:57:09.595Z,53.25
2017-06-05T17:58:05.847Z,53.18
2017-06-05T17:59:02.119Z,52.92
2017-06-05T17:59:58.379Z,53.11
2017-06-05T18:00:54.631Z,53.22
2017-06-05T18:01:50.899Z,53.39
2017-06-05T18:02:47.446Z,53.56
2017-06-05T18:03:43.829Z,53.53
2017-06-05T18:04:40.243Z,53.63
2017-06-05T18:05:36.482Z,53.48
2017-06-05T18:06:32.743Z,53.50
2017-06-05T18:07:29.366Z,53.64
2017-06-05T18:08:25.643Z,53.80
2017-06-05T18:09:22.293Z,54.07
2017-06-05T18:10:19.143Z,54.31
2017-06-05T18:11:15.403Z,54.27
2017-06-05T18:12:11.663Z,54.13
2017-06-05T18:13:07.979Z,54.14
2017-06-05T18:14:04.262Z,54.23
2017-06-05T18:15:00.528Z,54.28
2017-06-05T18:15:57.302Z,54.38
2017-06-05T18:16:53.767Z,54.52
2017-06-05T18:17:50.022Z,54.74
2017-06-05T18:18:46.528Z,54.92
2017-06-05T18:19:42.827Z,55.23
2017-06-05T18:20:39.295Z,55.41
2017-06-05T18:21:35.566Z,55.37
2017-06-05T18:22:31.884Z,55.02
2017-06-05T18:23:28.631Z,54.87
2017-06-05T18:24:24.888Z,55.04
2017-06-05T18:25:21.147Z,54.95
2017-06-05T18:26:17.446Z,55.09
2017-06-05T18:27:13.726Z,55.26
2017-06-05T18:28:09.966Z,55.48
2017-06-05T18:29:07.247Z,55.41
2017-06-05T18:30:05.519Z,55.49
2017-06-05T18:31:03.575Z,55.48
2017-06-05T18:31:59.966Z,55.19
2017-06-05T18:32:56.447Z,55.32
2017-06-05T18:33:52.751Z,55.49
2017-06-05T18:34:50.243Z,55.50
2017-06-05T18:35:46.535Z,55.41
2017-06-05T18:36:43.625Z,55.56
2017-06-05T18:37:40.947Z,55.81
2017-06-05T18:38:42.195Z,56.08
2017-06-05T18:39:38.803Z,56.05
2017-06-05T18:40:35.910Z,55.99
2017-06-05T18:41:32.207Z,56.22
2017-06-05T18:42:28.511Z,56.39
2017-06-05T18:43:27.835Z,56.63
2017-06-05T18:44:24.184Z,56.87
2017-06-05T18:45:22.677Z,57.10
2017-06-05T18:46:19.431Z,57.29
2017-06-05T18:47:17.668Z,57.67
2017-06-05T18:48:14.159Z,57.63
2017-06-05T18:49:12.399Z,57.75
2017-06-05T18:50:08.920Z,57.77
2017-06-05T18:51:08.498Z,57.80
2017-06-05T18:52:04.803Z,57.88
2017-06-05T18:53:01.070Z,58.05
2017-06-05T18:53:57.751Z,58.07
2017-06-05T18:54:55.047Z,58.07
2017-06-05T18:55:51.862Z,58.10
2017-06-05T18:56:48.183Z,58.25
2017-06-05T18:57:44.439Z,58.27
2017-06-05T18:58:40.723Z,58.53
2017-06-05T18:59:37.107Z,58.50
2017-06-05T19:00:36.503Z,58.60
2017-06-05T19:01:32.771Z,58.86
2017-06-05T19:02:29.022Z,59.01
2017-06-05T19:03:25.326Z,59.15
2017-06-05T19:04:21.587Z,59.29
2017-06-05T19:05:18.255Z,59.33
2017-06-05T19:06:14.515Z,59.41
2017-06-05T19:07:10.780Z,59.46
2017-06-05T19:08:08.707Z,59.55
2017-06-05T19:09:05.096Z,59.53
2017-06-05T19:10:01.350Z,59.66
2017-06-05T19:10:57.837Z,59.77
2017-06-05T19:11:54.108Z,59.95
2017-06-05T19:12:50.406Z,60.23
2017-06-05T19:13:46.690Z,60.30
2017-06-05T19:14:43.290Z,60.26
2017-06-05T19:15:39.872Z,60.39
2017-06-05T19:16:36.175Z,60.50
2017-06-05T19:17:32.423Z,60.55
2017-06-05T19:18:28.881Z,60.63
2017-06-05T19:19:25.139Z,60.69
2017-06-05T19:20:22.222Z,60.81
2017-06-05T19:21:18.480Z,60.87
2017-06-05T19:22:14.779Z,60.82
2017-06-05T19:24:13.883Z,60.90
2017-06-05T19:25:10.143Z,60.95
2017-06-05T19:26:06.740Z,61.04
2017-06-05T19:27:04.081Z,61.11
2017-06-05T19:28:00.709Z,61.23
2017-06-05T19:28:57.264Z,61.25
2017-06-05T19:29:54.544Z,61.35
2017-06-05T19:30:52.457Z,61.47
2017-06-05T19:31:49.109Z,61.59
2017-06-05T19:32:46.456Z,61.68
2017-06-05T19:33:43.559Z,61.77
2017-06-05T19:34:39.875Z,61.93
2017-06-05T19:35:36.143Z,62.08
2017-06-05T19:36:32.696Z,62.13
2017-06-05T19:37:29.039Z,62.29
2017-06-05T19:38:27.388Z,62.45
2017-06-05T19:39:23.905Z,62.56
2017-06-05T19:40:21.002Z,62.81
2017-06-05T19:41:19.383Z,62.89
2017-06-05T19:42:17.744Z,63.11
2017-06-05T19:43:14.252Z,63.39
2017-06-05T19:44:11.016Z,63.48
2017-06-05T19:45:09.509Z,63.70
2017-06-05T19:46:05.832Z,63.84
2017-06-05T19:47:03.120Z,63.95
2017-06-05T19:48:01.712Z,64.13
2017-06-05T19:48:58.023Z,64.13
2017-06-05T19:49:54.567Z,64.15
2017-06-05T19:50:53.736Z,64.32
2017-06-05T19:51:50.127Z,64.39
2017-06-05T19:52:51.692Z,64.42
2017-06-05T19:53:47.950Z,64.49
2017-06-05T19:54:44.507Z,64.67
2017-06-05T19:55:40.827Z,64.82
2017-06-05T19:56:37.179Z,64.85
2017-06-05T19:57:33.568Z,64.97
2017-06-05T19:58:34.276Z,65.20
2017-06-05T19:59:31.896Z,65.36
2017-06-05T20:00:30.268Z,65.42
2017-06-05T20:01:26.727Z,65.42
2017-06-05T20:02:25.107Z,65.44
2017-06-05T20:03:21.447Z,65.49
2017-06-05T20:04:17.740Z,65.57
2017-06-05T20:05:16.358Z,65.66
2017-06-05T20:06:12.748Z,65.73
2017-06-05T20:07:09.171Z,65.83
2017-06-05T20:08:07.768Z,65.90
2017-06-05T20:09:04.891Z,66.01
2017-06-05T20:10:03.427Z,66.02
2017-06-05T20:11:00.782Z,66.12
2017-06-05T20:12:01.250Z,66.15
2017-06-05T20:14:10.352Z,66.08
2017-06-05T20:15:09.460Z,66.15
2017-06-05T20:16:07.692Z,66.12
2017-06-05T20:17:04.587Z,66.26
2017-06-05T20:18:07.385Z,66.28
2017-06-05T20:19:06.028Z,66.41
2017-06-05T20:20:10.299Z,66.46
2017-06-05T20:23:29.431Z,66.63
2017-06-05T20:25:37.748Z,66.68
2017-06-05T20:30:16.971Z,67.02
2017-06-05T20:33:42.587Z,67.37
2017-06-05T20:34:47.327Z,67.42
2017-06-05T20:35:50.284Z,67.48
2017-06-05T20:36:53.231Z,67.63
2017-06-05T20:40:26.689Z,67.96
2017-06-05T20:41:24.227Z,68.12
2017-06-05T20:42:23.626Z,68.15
2017-06-05T20:43:23.971Z,68.34
2017-06-05T20:44:22.279Z,68.41
2017-06-05T20:45:18.795Z,68.53
2017-06-05T20:46:21.695Z,68.58
2017-06-05T20:47:24.800Z,68.66
2017-06-05T20:48:31.457Z,68.71
2017-06-05T20:49:34.763Z,68.76
2017-06-05T20:50:37.736Z,68.79
2017-06-05T20:51:40.772Z,68.83
2017-06-05T20:52:43.607Z,68.91
2017-06-05T20:53:39.995Z,68.88
2017-06-05T20:55:45.291Z,69.02
2017-06-05T20:56:42.855Z,69.09
2017-06-05T20:57:42.328Z,69.14
2017-06-05T20:58:45.192Z,69.22
2017-06-05T20:59:48.584Z,69.30
2017-06-05T21:00:51.584Z,69.41
2017-06-05T21:01:53.654Z,69.46
2017-06-05T21:04:09.217Z,69.63
2017-06-05T21:05:11.752Z,69.73
2017-06-05T21:06:09.099Z,69.76
2017-06-05T21:07:13.796Z,69.91
2017-06-05T21:08:11.180Z,69.93
2017-06-05T21:09:14.960Z,70.03
2017-06-05T21:10:13.679Z,70.07
2017-06-05T21:18:27.291Z,70.38
2017-06-05T21:20:47.403Z,70.48
2017-06-05T21:24:16.696Z,70.67
2017-06-05T21:26:31.488Z,70.75
2017-06-05T21:27:33.786Z,70.97
2017-06-05T21:28:34.981Z,70.99
2017-06-05T21:29:31.661Z,71.04
2017-06-05T21:31:53.523Z,71.39
2017-06-05T21:33:59.652Z,71.42
2017-06-05T21:36:20.162Z,71.60
2017-06-05T21:37:19.791Z,71.69
2017-06-05T21:38:27.829Z,71.74
2017-06-05T21:40:47.579Z,71.86
2017-06-05T21:45:32.226Z,72.23
2017-06-05T21:46:35.587Z,72.25
2017-06-05T21:47:32.307Z,72.48
2017-06-05T21:48:32.796Z,71.73
2017-06-05T21:50:38.892Z,70.11
2017-06-05T21:51:43.480Z,69.50
2017-06-05T21:52:40.927Z,69.12
2017-06-05T21:53:38.764Z,68.82
2017-06-05T21:54:35.968Z,68.60
2017-06-05T21:55:34.821Z,68.43
2017-06-05T21:57:38.792Z,68.12
2017-06-05T21:58:35.608Z,67.95
2017-06-05T21:59:34.852Z,67.90
2017-06-05T22:00:31.501Z,67.91
2017-06-05T22:01:29.004Z,67.79
2017-06-05T22:02:25.708Z,67.67
2017-06-05T22:03:22.436Z,67.64
2017-06-05T22:04:18.807Z,67.61
2017-06-05T22:05:15.564Z,67.45
2017-06-05T22:06:12.212Z,67.48
2017-06-05T22:07:10.544Z,67.50
2017-06-05T22:08:07.721Z,67.43
2017-06-05T22:09:10.503Z,67.38
2017-06-05T22:10:08.716Z,67.38
2017-06-05T22:11:05.328Z,67.38
2017-06-05T22:12:08.272Z,67.38
2017-06-05T22:13:05.092Z,67.37
2017-06-05T22:14:02.243Z,67.35
2017-06-05T22:23:12.427Z,67.50
2017-06-05T22:24:12.323Z,67.60
2017-06-05T22:25:12.290Z,67.52
2017-06-05T22:26:12.528Z,67.49
2017-06-05T22:27:18.176Z,67.61
2017-06-05T22:28:16.432Z,67.61
2017-06-05T22:29:20.688Z,67.60
2017-06-05T22:30:17.400Z,67.69
2017-06-05T22:31:17.296Z,67.78
2017-06-05T22:33:22.868Z,67.80
2017-06-05T22:34:21.539Z,67.81
2017-06-05T22:35:22.187Z,67.96
2017-06-05T22:36:19.815Z,68.00
2017-06-05T22:37:21.232Z,68.02
2017-06-05T22:38:17.900Z,68.00
2017-06-05T22:39:16.278Z,68.17
2017-06-05T22:40:14.401Z,68.22
2017-06-05T22:41:10.900Z,68.38
2017-06-05T22:42:07.644Z,68.38
2017-06-05T22:43:04.760Z,68.41
2017-06-05T22:45:25.035Z,68.53
2017-06-05T22:46:27.477Z,68.56
2017-06-05T22:47:32.112Z,68.59
2017-06-05T22:48:35.682Z,68.68
2017-06-05T22:49:38.148Z,68.78
2017-06-05T22:50:41.480Z,68.96
2017-06-05T22:51:44.280Z,68.99
2017-06-05T22:52:42.680Z,68.97
2017-06-05T22:53:40.503Z,69.10
2017-06-05T22:54:48.635Z,69.21
2017-06-05T22:56:53.092Z,69.29
2017-06-05T23:01:19.400Z,69.54
2017-06-05T23:02:23.627Z,69.57
2017-06-05T23:03:23.971Z,69.70
2017-06-05T23:04:26.231Z,69.75
2017-06-05T23:05:26.679Z,69.71
2017-06-05T23:06:25.209Z,69.76
2017-06-05T23:08:28.302Z,69.98
2017-06-05T23:09:25.987Z,69.96
2017-06-05T23:10:22.408Z,70.04
2017-06-05T23:11:22.923Z,70.17
2017-06-05T23:19:58.464Z,70.22
2017-06-05T23:20:55.076Z,70.31
2017-06-05T23:22:00.416Z,70.33
2017-06-05T23:22:58.552Z,70.51
2017-06-05T23:25:11.206Z,70.75
2017-06-05T23:26:09.532Z,70.88
2017-06-05T23:28:18.204Z,71.06
2017-06-05T23:29:16.988Z,71.12
2017-06-05T23:36:54.680Z,71.20
2017-06-05T23:41:18.016Z,71.34
2017-06-05T23:47:00.252Z,71.81
2017-06-05T23:47:56.487Z,71.79
2017-06-05T23:48:52.719Z,72.02
2017-06-05T23:49:48.974Z,72.14
2017-06-05T23:50:45.213Z,72.23
2017-06-05T23:51:41.455Z,72.24
2017-06-05T23:52:37.683Z,72.28
2017-06-05T23:53:33.923Z,72.51
2017-06-05T23:54:30.187Z,72.64
2017-06-05T23:55:26.424Z,72.63
2017-06-05T23:56:22.682Z,72.82
2017-06-05T23:57:18.923Z,72.79
2017-06-05T23:58:15.171Z,72.83
2017-06-05T23:59:11.406Z,72.89
